Banner, Kentucky
Current Conditions -  °F | °C
As of 7:15 PM on Sunday 25 Jan 2015 (Local Time) from KPBX Reporting Station
Light Rain Light Rain  
Wind Chill: 44°   Ceiling: 4100
Heat Index: 44°   Visibility: 10mi
Dew Point: 35°   Wind: 0mph
Humidity: 71%   Direction: NA
Pressure: 29.72"   Gusts: NA
Location:  37.61°N, 82.68°W
Report Text: KPBX 260015Z AUTO 00000KT 10SM -RA OVC041 07/02 A2972 RMK AO2 T00660016
Loading
Personal Weather Stations






























Interactive Weather Map New forecast layout! Learn more

10-Day Weather Forecast

Advertisements
Track Severe Weather on mobile